sim
Sign-in with your pilot id or email,
or register
Callsign
Passwort

Schedule Details

Flight Number: DLH2081 (2)
Departure: Hamburg Airport (EDDH) at 19:05
Arrival: Munich Airport (EDDM) at 20:20
Route: Lufthansa Passenger Schedule. Enter filed route here before submitting Pirep.

Weather Information
Getting current METAR information for EDDH 230950Z 22006KT CAVOK 19/11 Q1004 NOSIG
Getting current METAR information for EDDM 230950Z 25009KT 5000 -SHRA FEW007 FEW015CB BKN025 15/14 Q1010 RESHRA NOSIG

Schedule Frequency

Route Map